Moosup, Connecticut
Current Conditions -  °F | °C
As of 11:52 AM on Friday 24 Oct 2014 (Local Time) from KIJD Reporting Station
Overcast Overcast  
Wind Chill: 52°   Ceiling: 2000
Heat Index: 52°   Visibility: 10mi
Dew Point: 43°   Wind: 12mph
Humidity: 71%   Direction: 340°NNW
Pressure: 29.75"   Gusts: NA
Location:  41.72°N, 71.87°W
Report Text: KIJD 241552Z AUTO 34010KT 10SM OVC020 11/06 A2975 RMK AO2 SLP075 T01110061
Loading
Personal Weather Stations






























Interactive Weather Map
Tropical Storm Tracking
New forecast layout! Learn more

10-Day Weather Forecast

Advertisements
Track Severe Weather on mobile